createdAt,value
2023-02-28T06:02:12.898Z,7.00
2023-02-28T06:04:39.759Z,8.75
2023-02-28T06:07:06.235Z,7.80
2023-02-28T06:09:33.216Z,5.97
2023-02-28T06:12:06.475Z,9.25
2023-02-28T06:14:34.862Z,9.45
2023-02-28T06:17:01.944Z,6.43
2023-02-28T06:19:31.191Z,6.13
2023-02-28T06:21:58.276Z,5.63
2023-02-28T06:24:29.199Z,7.82
2023-02-28T06:26:56.150Z,9.77
2023-02-28T06:29:23.400Z,10.98
2023-02-28T06:31:49.996Z,7.90
2023-02-28T06:34:17.697Z,7.97
2023-02-28T06:36:44.657Z,6.95
2023-02-28T06:39:11.815Z,10.50
2023-02-28T06:41:53.514Z,12.07
2023-02-28T06:44:23.281Z,11.35
2023-02-28T06:46:50.225Z,7.80
2023-02-28T06:49:17.769Z,6.82
2023-02-28T06:51:48.683Z,7.47
2023-02-28T06:54:16.804Z,5.03
2023-02-28T06:56:43.289Z,5.15
2023-02-28T06:59:10.579Z,8.25
2023-02-28T07:01:37.238Z,5.65
2023-02-28T07:04:06.798Z,7.13
2023-02-28T07:06:33.698Z,6.22
2023-02-28T07:09:01.369Z,4.30
2023-02-28T07:11:29.409Z,10.20
2023-02-28T07:13:57.794Z,3.17
2023-02-28T07:16:25.816Z,9.63
2023-02-28T07:18:56.448Z,4.90
2023-02-28T07:21:23.324Z,4.50
2023-02-28T07:23:50.877Z,5.38
2023-02-28T07:26:19.427Z,3.95
2023-02-28T07:28:48.647Z,6.43
2023-02-28T07:31:16.863Z,6.25
2023-02-28T07:33:44.542Z,7.85
2023-02-28T07:36:16.066Z,8.48
2023-02-28T07:38:48.136Z,8.55
2023-02-28T07:41:16.837Z,6.30
2023-02-28T07:43:45.833Z,6.60
2023-02-28T07:46:15.957Z,5.05
2023-02-28T07:48:43.892Z,5.45
2023-02-28T07:51:10.887Z,7.78
2023-02-28T07:53:38.029Z,4.88
2023-02-28T07:56:05.210Z,3.83
2023-02-28T07:58:32.817Z,4.38
2023-02-28T08:01:09.669Z,2.88
2023-02-28T08:03:37.558Z,1.83
2023-02-28T08:06:09.165Z,4.00
2023-02-28T08:08:36.567Z,4.90
2023-02-28T08:11:04.318Z,5.47
2023-02-28T08:13:31.818Z,2.38
2023-02-28T08:15:58.382Z,2.85
2023-02-28T08:18:25.590Z,5.78
2023-02-28T08:20:52.400Z,4.00
2023-02-28T08:23:19.920Z,2.13
2023-02-28T08:25:54.202Z,3.47
2023-02-28T08:28:21.347Z,2.60
2023-02-28T08:30:47.837Z,2.90
2023-02-28T08:33:14.950Z,5.00
2023-02-28T08:35:41.476Z,2.80
2023-02-28T08:38:08.549Z,3.53
2023-02-28T08:40:35.093Z,2.72
2023-02-28T08:43:02.232Z,3.10
2023-02-28T08:45:28.733Z,5.47
2023-02-28T08:47:56.702Z,4.97
2023-02-28T08:50:23.650Z,5.40
2023-02-28T08:52:51.964Z,2.92
2023-02-28T08:55:18.519Z,2.83
2023-02-28T08:57:45.755Z,4.30
2023-02-28T09:00:14.564Z,3.47
2023-02-28T09:02:43.968Z,2.67
2023-02-28T09:05:10.620Z,3.45
2023-02-28T09:07:37.892Z,2.97
2023-02-28T09:10:04.932Z,5.95
2023-02-28T09:12:35.972Z,1.77
2023-02-28T09:15:03.080Z,2.38
2023-02-28T09:17:30.807Z,7.63
2023-02-28T09:19:58.439Z,5.50
2023-02-28T09:22:25.722Z,3.75
2023-02-28T09:24:52.186Z,3.83
2023-02-28T09:27:19.282Z,2.15
2023-02-28T09:29:45.764Z,4.55
2023-02-28T09:32:13.208Z,4.05
2023-02-28T09:34:39.804Z,3.63
2023-02-28T09:37:07.148Z,4.63
2023-02-28T09:39:33.779Z,3.28
2023-02-28T09:42:03.568Z,4.30
2023-02-28T09:44:37.961Z,3.55
2023-02-28T09:47:27.023Z,4.05
2023-02-28T09:49:54.064Z,4.00
2023-02-28T09:52:29.304Z,8.60
2023-02-28T09:54:55.918Z,5.85
2023-02-28T09:57:52.983Z,6.65
2023-02-28T10:00:25.646Z,9.15
2023-02-28T10:03:05.380Z,7.78
2023-02-28T10:05:54.468Z,6.50
2023-02-28T10:08:28.955Z,8.70
2023-02-28T10:11:01.467Z,8.02
2023-02-28T10:13:34.432Z,6.53
2023-02-28T10:16:12.204Z,4.55
2023-02-28T10:18:48.174Z,8.07
2023-02-28T10:21:21.837Z,5.07
2023-02-28T10:23:50.298Z,8.27
2023-02-28T10:26:18.650Z,4.53
2023-02-28T10:28:46.517Z,3.22
2023-02-28T10:31:20.386Z,3.50
2023-02-28T10:33:48.455Z,3.85
2023-02-28T10:36:17.603Z,8.07
2023-02-28T10:38:46.173Z,7.07
2023-02-28T10:41:16.189Z,6.50
2023-02-28T10:43:46.310Z,5.78
2023-02-28T10:46:27.204Z,5.18
2023-02-28T10:49:04.733Z,4.93
2023-02-28T10:51:39.813Z,8.65
2023-02-28T10:54:15.633Z,5.25
2023-02-28T10:56:42.834Z,4.53
2023-02-28T10:59:09.876Z,5.85
2023-02-28T11:01:40.821Z,4.25
2023-02-28T11:04:31.067Z,2.92
2023-02-28T11:07:00.506Z,2.90
2023-02-28T11:11:57.739Z,2.63
2023-02-28T11:14:35.428Z,3.30
2023-02-28T11:17:24.535Z,6.32
2023-02-28T11:19:56.493Z,5.05
2023-02-28T11:22:29.951Z,2.45
2023-02-28T11:25:00.477Z,3.10
2023-02-28T11:27:46.255Z,3.78
2023-02-28T11:30:25.016Z,3.88
2023-02-28T11:32:52.280Z,2.97
2023-02-28T11:35:25.449Z,3.90
2023-02-28T11:37:56.362Z,4.53
2023-02-28T11:40:46.976Z,5.70
2023-02-28T11:43:26.104Z,2.92
2023-02-28T11:46:28.235Z,4.57
2023-02-28T11:49:26.472Z,4.22
2023-02-28T11:52:01.496Z,5.35
2023-02-28T11:54:49.903Z,5.50
2023-02-28T11:57:59.088Z,3.70
2023-02-28T12:01:04.147Z,3.40
2023-02-28T12:03:46.740Z,3.45
2023-02-28T12:06:22.974Z,3.97
2023-02-28T12:09:07.629Z,5.07
2023-02-28T12:11:42.845Z,4.20
2023-02-28T12:14:39.399Z,5.30
2023-02-28T12:17:18.043Z,4.47
2023-02-28T12:20:35.763Z,4.72
2023-02-28T12:23:55.187Z,4.32
2023-02-28T12:26:37.310Z,3.28
2023-02-28T12:29:29.873Z,2.97
2023-02-28T12:32:15.237Z,3.13
2023-02-28T12:34:50.595Z,4.10
2023-02-28T12:37:25.572Z,4.25
2023-02-28T12:40:00.741Z,2.78
2023-02-28T12:42:31.393Z,3.92
2023-02-28T12:45:13.033Z,3.80
2023-02-28T12:47:43.615Z,3.58
2023-02-28T12:50:13.337Z,5.32
2023-02-28T12:52:42.858Z,4.15
2023-02-28T12:55:15.833Z,5.03
2023-02-28T12:57:53.484Z,3.50
2023-02-28T13:00:23.484Z,2.85
2023-02-28T13:05:52.199Z,4.70
2023-02-28T13:08:41.799Z,3.78
2023-02-28T13:11:24.090Z,5.93
2023-02-28T13:13:58.973Z,4.22
2023-02-28T13:16:25.567Z,4.15
2023-02-28T13:18:53.617Z,3.65
2023-02-28T13:21:28.542Z,3.42
2023-02-28T13:23:59.265Z,5.50
2023-02-28T13:26:32.445Z,5.32
2023-02-28T13:29:01.984Z,6.70
2023-02-28T13:31:29.724Z,7.63
2023-02-28T13:34:00.286Z,4.18
2023-02-28T13:36:33.299Z,6.78
2023-02-28T13:39:05.107Z,9.32
2023-02-28T13:41:32.508Z,4.63
2023-02-28T13:44:02.907Z,3.72
2023-02-28T13:46:30.133Z,6.78
2023-02-28T13:48:57.056Z,5.93
2023-02-28T13:51:45.436Z,9.35
2023-02-28T13:54:31.578Z,8.00
2023-02-28T13:57:20.491Z,4.22
2023-02-28T13:59:51.418Z,5.43
2023-02-28T14:02:42.367Z,5.45
2023-02-28T14:05:22.815Z,4.82
2023-02-28T14:07:54.102Z,6.13
2023-02-28T14:10:33.871Z,5.90
2023-02-28T14:13:35.331Z,10.73
2023-02-28T14:16:04.890Z,4.60
2023-02-28T14:18:37.195Z,6.50
2023-02-28T14:21:26.720Z,5.43
2023-02-28T14:24:32.122Z,6.93
2023-02-28T14:27:12.995Z,6.55
2023-02-28T14:29:48.475Z,6.22
2023-02-28T14:32:36.433Z,4.60
2023-02-28T14:35:16.737Z,4.78
2023-02-28T14:37:44.705Z,4.60
2023-02-28T14:40:32.186Z,5.43
2023-02-28T14:43:01.363Z,3.85
2023-02-28T14:45:31.754Z,5.97
2023-02-28T14:48:00.194Z,8.15
2023-02-28T14:50:37.277Z,4.78
2023-02-28T14:53:07.158Z,4.80
2023-02-28T14:55:36.986Z,8.45
2023-02-28T14:58:26.620Z,4.82
2023-02-28T15:00:57.381Z,3.85
2023-02-28T15:03:32.674Z,6.63
2023-02-28T15:06:03.530Z,4.03
2023-02-28T15:08:32.756Z,5.03
2023-02-28T15:11:03.241Z,5.10
2023-02-28T15:13:48.615Z,10.35
2023-02-28T15:16:23.305Z,6.38
2023-02-28T15:18:53.819Z,6.55
2023-02-28T15:21:28.289Z,7.28
2023-02-28T15:24:00.129Z,7.38
2023-02-28T15:26:32.788Z,4.40
2023-02-28T15:29:06.576Z,5.78
2023-02-28T15:31:55.810Z,6.30
2023-02-28T15:34:42.297Z,5.65
2023-02-28T15:37:49.109Z,5.90
2023-02-28T15:40:23.433Z,4.32
2023-02-28T15:43:04.964Z,4.78
2023-02-28T15:45:39.700Z,7.97
2023-02-28T15:48:16.261Z,5.13
2023-02-28T15:50:43.741Z,6.68
2023-02-28T15:53:17.065Z,9.10
2023-02-28T15:55:45.240Z,6.53
2023-02-28T15:58:13.896Z,4.22
2023-02-28T16:00:46.572Z,3.50
2023-02-28T16:03:45.080Z,9.05
2023-02-28T16:06:18.305Z,6.85
2023-02-28T16:08:45.388Z,5.45
2023-02-28T16:11:12.482Z,4.07
2023-02-28T16:13:39.732Z,4.63
2023-02-28T16:16:06.637Z,5.75
2023-02-28T16:18:33.768Z,6.57
2023-02-28T16:21:00.319Z,7.28
2023-02-28T16:23:27.438Z,7.03
2023-02-28T16:25:54.182Z,6.43
2023-02-28T16:28:25.068Z,5.63
2023-02-28T16:30:54.955Z,4.35
2023-02-28T16:33:22.128Z,5.07
2023-02-28T16:35:48.603Z,6.70
2023-02-28T16:38:15.755Z,7.80
2023-02-28T16:40:42.341Z,4.10
2023-02-28T16:43:17.740Z,6.43
2023-02-28T16:45:44.491Z,4.38
2023-02-28T16:48:17.182Z,2.88
2023-02-28T16:50:47.157Z,4.88
2023-02-28T16:53:14.771Z,5.50
2023-02-28T16:55:42.467Z,7.05
2023-02-28T16:58:15.841Z,5.28
2023-02-28T17:00:42.730Z,6.38
2023-02-28T17:03:32.592Z,7.20
2023-02-28T17:06:00.944Z,5.25
2023-02-28T17:08:30.004Z,4.60
2023-02-28T17:10:56.713Z,11.73
2023-02-28T17:13:23.837Z,8.35
2023-02-28T17:15:50.876Z,7.65
2023-02-28T17:18:21.253Z,5.63
2023-02-28T17:20:48.595Z,6.68
2023-02-28T17:23:16.210Z,6.18
2023-02-28T17:25:50.124Z,6.78
2023-02-28T17:28:17.271Z,5.53
2023-02-28T17:30:47.981Z,6.07
2023-02-28T17:33:16.052Z,6.32
2023-02-28T17:35:42.683Z,9.13
2023-02-28T17:38:16.818Z,5.85
2023-02-28T17:40:44.090Z,5.75
2023-02-28T17:43:11.629Z,7.90
2023-02-28T17:45:38.302Z,5.32
2023-02-28T17:48:06.180Z,8.57
2023-02-28T17:50:33.845Z,12.80
2023-02-28T17:53:00.715Z,11.00
2023-02-28T17:55:27.677Z,11.60
2023-02-28T17:57:54.787Z,7.20
2023-02-28T18:00:24.912Z,7.63
2023-02-28T18:02:52.493Z,6.28
2023-02-28T18:05:19.137Z,6.45
2023-02-28T18:07:46.511Z,5.88
2023-02-28T18:10:20.013Z,5.38
2023-02-28T18:12:48.975Z,7.13
2023-02-28T18:15:17.525Z,6.25
2023-02-28T18:17:44.779Z,6.53
2023-02-28T18:20:12.203Z,5.60
2023-02-28T18:22:40.672Z,7.32
2023-02-28T18:25:09.373Z,7.15
2023-02-28T18:27:37.437Z,8.73
2023-02-28T18:30:05.139Z,8.00
2023-02-28T18:32:32.187Z,9.50
2023-02-28T18:34:58.737Z,12.52
2023-02-28T18:37:25.872Z,12.50
2023-02-28T18:39:52.418Z,8.50
2023-02-28T18:42:19.584Z,8.80
2023-02-28T18:44:46.132Z,9.52
2023-02-28T18:47:13.426Z,12.57
2023-02-28T18:49:39.938Z,11.60
2023-02-28T18:52:07.050Z,17.58
2023-02-28T18:54:33.611Z,14.38
2023-02-28T18:57:01.055Z,15.57
2023-02-28T18:59:27.709Z,12.20
2023-02-28T19:01:54.786Z,15.65
2023-02-28T19:04:21.476Z,12.50
2023-02-28T19:06:49.853Z,11.27
2023-02-28T19:09:16.403Z,12.32
2023-02-28T19:11:43.681Z,9.95
2023-02-28T19:14:10.245Z,10.93
2023-02-28T19:16:37.505Z,8.43
2023-02-28T19:19:04.070Z,10.95
2023-02-28T19:21:31.060Z,13.13
2023-02-28T19:23:58.245Z,9.27
2023-02-28T19:26:26.603Z,8.32
2023-02-28T19:28:53.869Z,8.57
2023-02-28T19:31:25.817Z,14.73
2023-02-28T19:33:53.514Z,19.25
2023-02-28T19:36:20.945Z,14.40
2023-02-28T19:38:48.655Z,14.68
2023-02-28T19:41:17.613Z,14.18
2023-02-28T19:43:44.817Z,14.70
2023-02-28T19:46:12.619Z,12.90
2023-02-28T19:48:40.194Z,10.48
2023-02-28T19:51:10.496Z,9.52
2023-02-28T19:53:39.201Z,10.73
2023-02-28T19:56:06.526Z,10.32
2023-02-28T19:58:34.213Z,10.50
2023-02-28T20:01:12.768Z,12.20
2023-02-28T20:03:40.112Z,10.90
2023-02-28T20:06:09.848Z,10.98
2023-02-28T20:08:38.535Z,10.98
2023-02-28T20:11:10.187Z,11.05
2023-02-28T20:13:37.932Z,10.68
2023-02-28T20:16:09.364Z,13.73
2023-02-28T20:18:39.907Z,12.52
2023-02-28T20:21:12.069Z,12.95
2023-02-28T20:23:40.044Z,12.52
2023-02-28T20:26:07.786Z,13.23
2023-02-28T20:28:34.975Z,15.80
2023-02-28T20:31:01.966Z,10.63
2023-02-28T20:33:28.944Z,11.93
2023-02-28T20:36:02.684Z,14.98
2023-02-28T20:38:29.375Z,11.93
2023-02-28T20:41:00.250Z,10.20
2023-02-28T20:43:27.408Z,14.43
2023-02-28T20:45:58.566Z,13.00
2023-02-28T20:48:25.731Z,12.52
2023-02-28T20:50:55.060Z,12.68
2023-02-28T20:53:24.535Z,13.35
2023-02-28T20:56:18.985Z,14.45
2023-02-28T20:58:47.916Z,13.30
2023-02-28T21:01:18.598Z,10.75
2023-02-28T21:03:49.978Z,11.55
2023-02-28T21:06:20.319Z,9.75
2023-02-28T21:08:47.071Z,11.02
2023-02-28T21:11:17.292Z,11.32
2023-02-28T21:13:45.132Z,12.80
2023-02-28T21:16:17.738Z,11.55
2023-02-28T21:18:45.879Z,12.93
2023-02-28T21:21:15.761Z,8.77
2023-02-28T21:23:45.157Z,15.05
2023-02-28T21:28:44.167Z,13.90
